Weather observations for the past three days for
East Hampton Town Airport
Imperial (Metric)
Date Time (edt) Wind (mph) Vis. (mi.) Weather Sky Cond. Temperature (ºF) Relative Humidity Wind Chill (°F) Heat Index (°F) Pressure Precipitation (in)
Air Dwpt 6 hour altimeter (in) sea level (mb) 1 hr 3 hr 6 hr
Max. Min.
06 13:15 SW 14 G 24 10.00 Mostly Cloudy BKN085 BKN090 57.6 48.7 73% 29.85 0.0
06 12:55 SW 15 G 23 10.00 Partly Cloudy SCT085 57 48.9 74% 29.86 0.0
06 12:35 SW 15 G 23 10.00 Fair CLR 57.4 48.7 73% 29.86 0.0
06 12:15 S 12 G 23 10.00 Fair CLR 59.9 49.5 69% 29.87 0.0
06 11:55 SW 15 G 21 10.00 Fair CLR 57.7 49.5 74% 29.88 0.0
06 11:35 SW 15 G 25 10.00 Fair CLR 56.7 49.1 76% 29.89 0.0
06 11:15 SW 14 G 21 10.00 Fair CLR 57.4 48.9 74% 29.89 0.0
06 10:55 SW 13 G 26 10.00 Fair CLR 60.3 49.5 68% 29.88 0.0
06 10:35 SW 16 G 26 10.00 Fair CLR 59.5 50 71% 29.89 0.0
06 10:15 SW 16 G 24 10.00 Fair CLR 58.6 49.5 72% 29.89 0.0
06 09:55 SW 15 G 23 10.00 Fair CLR 57.7 49.1 73% 29.89 0.0
06 09:35 SW 16 G 26 10.00 Fair CLR 57.6 49.1 74% 29.88 0.0
06 09:15 SW 18 G 26 10.00 Fair CLR 57.9 49.1 73% 29.89 0.0
06 08:55 SW 15 G 25 10.00 Fair CLR 57.4 49.1 74% 29.89 0.0
06 08:35 SW 16 G 28 10.00 Fair CLR 57.7 49.3 74% 29.89 0.0
06 08:15 SW 15 G 21 10.00 Fair CLR 57.2 49.5 76% 29.89 0.0
06 07:55 SW 10 G 20 10.00 Fair CLR 56.7 49.6 56.7 53.1 77% 29.9 0.0
06 07:35 SW 7 G 18 10.00 Partly Cloudy SCT010 56.1 49.5 78% 29.89 0.0
06 07:15 SW 10 G 18 7.00 Fair CLR 55.4 49.6 81% 29.89 0.0
06 06:55 SW 10 G 21 7.00 Fair CLR 54.5 50 85% 29.9 0.0
06 06:35 SW 13 G 17 7.00 Fair CLR 53.2 49.5 87% 29.9 0.0
06 06:15 SW 10 G 18 7.00 Fair CLR 53.6 49.6 87% 29.89 0.0
06 05:55 SW 10 G 16 7.00 Fair CLR 53.2 49.8 88% 29.89 0.0
06 05:35 S 9 10.00 Fair CLR 53.2 50 89% 29.89 0.0
06 05:15 SW 12 G 17 10.00 Fair CLR 53.2 49.8 88% 29.89 0.0
06 04:55 SW 12 G 18 10.00 Fair CLR 53.6 50.4 89% 29.9 0.0
06 04:35 SW 14 10.00 Partly Cloudy SCT009 53.6 50.4 89% 29.9 0.0
06 04:15 SW 12 G 21 7.00 Partly Cloudy SCT009 53.8 50.4 88% 29.91 0.0
06 03:55 SW 13 G 18 10.00 Partly Cloudy SCT010 54.3 50.9 88% 29.91 0.0
06 03:35 SW 12 G 18 10.00 Partly Cloudy SCT010 54.5 50.7 87% 29.91 0.0
06 03:15 SW 15 G 20 10.00 Fair CLR 54.5 50.4 86% 29.91 0.0
06 02:55 SW 15 G 21 10.00 Fair CLR 54.5 50.4 86% 29.9 0.0
06 02:35 SW 13 G 18 10.00 Fair CLR 54.5 50.5 87% 29.9 0.0
06 02:15 SW 9 10.00 Fair CLR 54.5 50.2 85% 29.91 0.0
06 01:55 SW 13 G 18 10.00 Fair CLR 54.9 50.2 55.4 54.5 84% 29.91 0.0
06 01:35 SW 12 G 18 10.00 Fair CLR 54.9 50 84% 29.91 0.0
06 01:15 SW 12 G 20 10.00 Fair CLR 55 50 83% 29.92 0.0
06 00:55 S 10 G 18 10.00 Fair CLR 54.9 49.3 82% 29.92 0.0
06 00:35 SW 13 G 21 10.00 Fair CLR 54.9 49.1 81% 29.92 0.0
06 00:15 SW 10 G 20 10.00 Fair CLR 54.5 49.3 83% 29.92 0.0
05 23:55 SW 12 G 16 10.00 Fair CLR 54.5 49.3 83% 29.92 0.0
05 23:35 SW 14 10.00 Fair CLR 54.5 49.3 83% 29.92 0.0
05 23:15 SW 15 G 20 10.00 Fair CLR 54.7 49.1 82% 29.92 0.0
05 22:55 SW 13 G 25 10.00 Fair CLR 55.4 49.1 79% 29.92 0.0
05 22:35 SW 13 G 20 10.00 Fair CLR 55 48.9 80% 29.92 0.0
05 22:15 SW 13 G 20 10.00 Fair CLR 54.7 48.4 79% 29.91 0.0
05 21:55 SW 13 G 22 10.00 Fair CLR 54.7 47.8 78% 29.91 0.0
05 21:35 SW 13 G 20 10.00 Fair CLR 55 47.3 75% 29.91 0.0
05 21:15 SW 12 G 22 10.00 Fair CLR 55.4 46.8 73% 29.9 0.0
05 20:55 SW 16 G 29 10.00 Fair CLR 55.4 46.4 72% 29.89 0.0
05 20:35 SW 16 G 24 10.00 Fair CLR 54.9 45.9 72% 29.88 0.0
05 20:15 SW 12 G 23 10.00 Fair CLR 54.7 45.9 72% 29.88 0.0
05 19:55 SW 14 G 23 10.00 Fair CLR 55 45.9 59.5 55 71% 29.87 0.0
05 19:35 SW 14 G 20 10.00 Fair CLR 55.2 46.4 72% 29.87 0.0
05 19:15 SW 15 G 25 10.00 Fair CLR 55.4 46.4 72% 29.86 0.0
05 18:55 SW 16 G 25 10.00 Fair CLR 56.3 46.4 70% 29.85 0.0
05 18:35 SW 18 G 26 10.00 Fair CLR 56.5 46.4 69% 29.85 0.0
05 18:15 SW 16 G 24 10.00 Fair CLR 56.8 46.4 68% 29.84 0.0
05 17:55 SW 14 G 26 10.00 Fair CLR 57.4 46.6 67% 29.85 0.0
05 17:35 SW 17 G 26 10.00 Fair CLR 57.6 46.6 67% 29.84 0.0
05 17:15 SW 16 G 25 10.00 Fair CLR 57.6 46.8 67% 29.84 0.0
05 16:55 SW 15 G 22 10.00 Fair CLR 57.2 46.8 68% 29.84 0.0
05 16:35 S 12 G 21 7.00 Fair CLR 57.6 46.6 67% 29.85 0.0
05 16:15 S 17 G 24 10.00 Fair CLR 57.9 46.8 67% 29.85 0.0
05 15:55 SW 16 G 24 10.00 Fair CLR 57.7 46.9 67% 29.85 0.0
05 15:35 SW 20 G 26 10.00 Fair CLR 59 47.3 65% 29.86 0.0
05 15:15 SW 15 G 25 10.00 Fair CLR 58.3 47.3 67% 29.87 0.0
05 14:55 SW 18 G 26 10.00 Fair CLR 58.6 47.5 67% 29.87 0.0
05 14:35 SW 18 G 24 10.00 Fair CLR 59.2 47.3 65% 29.88 0.0
05 14:15 SW 21 G 28 10.00 Fair and Breezy CLR 58.3 47.3 67% 29.87 0.0
05 13:55 SW 17 G 26 10.00 Fair CLR 57.7 46.9 60.3 54.1 67% 29.88 0.0
05 13:35 SW 20 G 26 10.00 Fair CLR 58.6 47.3 66% 29.88 0.0
05 13:15 SW 14 G 26 10.00 Fair CLR 58.5 47.5 67% 29.88 0.0
05 12:55 SW 18 G 25 10.00 Fair CLR 58.8 47.5 66% 29.89 0.0
05 12:35 S 13 G 21 10.00 Fair CLR 60.3 47.8 64% 29.89 0.0
05 12:15 SW 17 G 23 10.00 Fair CLR 58.8 47.7 67% 29.9 0.0
05 11:35 S 18 G 22 10.00 Fair CLR 59.2 47.7 66% 29.91 0.0
05 11:15 SW 16 G 21 10.00 Fair CLR 59.4 47.8 66% 29.91 0.0
05 10:55 SW 14 G 18 10.00 Partly Cloudy SCT110 59.5 48 66% 29.91 0.0
05 10:35 SW 14 G 23 10.00 Mostly Cloudy BKN110 58.3 48.2 69% 29.9 0.0
05 10:15 SW 12 G 18 10.00 Mostly Cloudy BKN110 55.2 47.7 76% 29.9 0.0
05 09:55 SW 12 G 22 10.00 Partly Cloudy SCT100 56.3 47.5 72% 29.9 0.0
05 09:35 SW 16 G 22 10.00 Fair CLR 57.2 47.8 71% 29.9 0.0
05 09:15 SW 14 G 23 10.00 Fair CLR 57.2 48 72% 29.9 0.0
05 08:55 SW 12 G 16 10.00 Fair CLR 57.7 48.6 72% 29.9 0.0
05 08:35 SW 9 10.00 Fair CLR 57 48.7 74% 29.9 0.0
05 08:15 SW 10 10.00 Partly Cloudy SCT100 55.8 48.9 78% 29.9 0.0
05 07:55 SW 12 G 22 10.00 Mostly Cloudy BKN100 54.7 48.2 54.7 49.5 79% 29.9 0.0
05 07:35 SW 12 G 18 10.00 Partly Cloudy SCT110 54 48 80% 29.89 0.0
05 07:15 SW 9 10.00 Fair CLR 53.1 48.2 84% 29.89 0.0
05 06:55 SW 8 10.00 Partly Cloudy SCT120 52.2 47.7 85% 29.89 0.0
05 06:35 SW 8 7.00 Partly Cloudy SCT120 51.3 47.3 86% 29.88 0.0
05 06:15 SW 8 7.00 Fair CLR 50.5 47.1 88% 29.87 0.0
05 05:55 SW 7 10.00 Partly Cloudy SCT085 50.2 46.9 89% 29.87 0.0
05 05:35 SW 6 10.00 Partly Cloudy SCT085 49.6 46.6 89% 48 29.87 0.0
05 05:15 S 8 10.00 Mostly Cloudy BKN085 49.5 46.4 89% 47 29.87 0.0
05 04:55 S 6 10.00 Partly Cloudy SCT085 50 46 86% 48 29.87 0.0
05 04:35 S 7 10.00 Fair CLR 50 45.9 86% 48 29.87 0.0
05 04:15 SW 6 10.00 Fair CLR 50 45.7 85% 48 29.87 0.0
05 03:55 SW 8 10.00 Fair CLR 50.2 45.7 85% 29.87 0.0
05 03:35 SW 7 10.00 Partly Cloudy SCT095 50.5 45.5 83% 29.88 0.0
05 03:15 SW 7 10.00 Mostly Cloudy BKN095 50.9 45.7 82% 29.88 0.0
05 02:55 SW 7 10.00 Fair CLR 50.4 45.7 84% 29.88 0.0
05 02:35 SW 7 10.00 Fair CLR 50.4 45.9 85% 29.88 0.0
05 02:15 SW 7 10.00 Fair CLR 50.4 46 85% 29.89 0.0
05 01:55 SW 8 10.00 Fair CLR 50.2 46.2 50.4 48.9 86% 29.89 0.0
05 01:35 SW 8 10.00 Fair CLR 50.4 46.4 86% 29.89 0.0
05 01:15 SW 8 10.00 Fair CLR 50 46.2 87% 47 29.89 0.0
05 00:55 SW 8 10.00 Fair CLR 50 46.2 87% 47 29.9 0.0
05 00:35 SW 9 10.00 Fair CLR 49.8 45.7 86% 47 29.9 0.0
05 00:15 SW 7 10.00 Fair CLR 49.3 45.7 87% 47 29.91 0.0
04 23:55 S 5 10.00 Fair CLR 49.1 45.7 88% 48 29.91 0.0
04 23:35 S 5 10.00 Fair CLR 49.1 45.5 87% 48 29.91 0.0
04 23:15 S 6 10.00 Fair CLR 49.3 45.5 87% 47 29.91 0.0
04 22:55 S 6 10.00 Fair CLR 49.6 45.5 86% 48 29.91 0.0
04 22:35 SW 7 10.00 Fair CLR 49.5 45.1 85% 47 29.91 0.0
04 22:15 SW 6 10.00 Fair CLR 49.5 45.3 86% 48 29.91 0.0
04 21:55 S 6 10.00 Fair CLR 49.6 45.1 85% 48 29.91 0.0
04 21:35 SW 8 10.00 Fair CLR 50 45.1 83% 47 29.91 0.0
04 21:15 S 7 10.00 Fair CLR 50 45 83% 48 29.9 0.0
04 20:55 SW 8 G 16 10.00 Fair CLR 49.5 45.1 85% 47 29.89 0.0
04 20:35 SW 9 10.00 Fair CLR 49.5 44.6 83% 46 29.88 0.0
04 20:15 SW 8 G 21 10.00 Fair CLR 49.8 44.4 82% 47 29.88 0.0
04 19:55 SW 9 10.00 Fair CLR 50 43.7 59.4 50 79% 47 29.87 0.0
04 19:35 SW 9 10.00 Fair CLR 50.5 43.3 76% 29.87 0.0
04 19:15 SW 10 G 23 10.00 Fair CLR 51.8 43.2 73% 29.86 0.0
04 18:55 SW 13 G 21 10.00 Fair CLR 52.7 42.8 69% 29.87 0.0
04 18:35 SW 12 G 20 10.00 Fair CLR 53.6 42.8 67% 29.87 0.0
04 18:15 SW 12 G 23 10.00 Fair CLR 54 42.6 66% 29.87 0.0
04 17:55 SW 14 G 24 10.00 Fair CLR 54.5 42.3 64% 29.87 0.0
04 17:35 SW 17 G 24 10.00 Fair CLR 54.1 42.3 64% 29.87 0.0
04 17:15 SW 12 G 22 10.00 Fair CLR 56.3 42.1 59% 29.87 0.0
04 16:55 SW 14 G 21 10.00 Fair CLR 57.2 41.7 56% 29.87 0.0
04 16:35 SW 16 G 26 10.00 Fair CLR 57.4 41.2 55% 29.86 0.0
04 16:15 SW 15 G 24 10.00 Fair CLR 57.7 40.5 53% 29.87 0.0
04 15:55 SW 16 G 28 10.00 Fair CLR 58.1 40.3 52% 29.87 0.0
04 15:35 SW 16 G 22 10.00 Fair CLR 59 40.5 50% 29.87 0.0
04 15:15 SW 18 G 24 10.00 Fair CLR 57.9 39.9 51% 29.88 0.0
04 14:55 SW 15 G 26 10.00 Fair CLR 59 40.8 51% 29.88 0.0
04 14:35 SW 15 G 24 10.00 Fair CLR 58.8 41.2 52% 29.89 0.0
04 14:15 SW 20 G 26 10.00 Fair CLR 59 41.2 52% 29.89 0.0
04 13:55 SW 18 G 26 10.00 Fair CLR 58.5 40.3 60.1 54.5 51% 29.89 0.0
04 13:35 SW 15 G 22 10.00 Fair CLR 59 42.4 54% 29.9 0.0
04 13:15 SW 16 G 24 10.00 Fair CLR 58.5 42.6 56% 29.9 0.0
04 12:55 SW 15 G 22 10.00 Fair CLR 58.5 42.6 56% 29.91 0.0
04 12:35 SW 15 G 20 10.00 Fair CLR 58.6 42.4 55% 29.91 0.0
04 12:15 SW 16 G 22 10.00 Fair CLR 58.1 41.2 54% 29.91 0.0
04 11:55 SW 13 G 20 10.00 Fair CLR 59.9 41 50% 29.92 0.0
04 11:35 SW 13 G 22 10.00 Fair CLR 58.5 41 52% 29.93 0.0
04 11:15 SW 10 G 20 10.00 Fair CLR 59.4 40.6 50% 29.93 0.0
04 10:55 SW 12 G 18 10.00 Fair CLR 59.5 38.8 46% 29.93 0.0
04 10:35 SW 14 10.00 Fair CLR 58.5 40.1 51% 29.93 0.0
04 10:15 SW 13 G 20 10.00 Fair CLR 59 39 48% 29.93 0.0
04 09:55 SW 9 G 20 10.00 Fair CLR 58.8 38.5 47% 29.94 0.0
04 09:35 SW 12 G 16 10.00 Fair CLR 57.9 38.8 49% 29.94 0.0
04 09:15 SW 14 G 17 10.00 Fair CLR 58.1 36.5 45% 29.94 0.0
04 08:55 SW 12 G 18 10.00 Fair CLR 57.6 36.3 45% 29.94 0.0
04 08:35 SW 13 G 18 10.00 Fair CLR 56.5 36 46% 29.94 0.0
04 07:55 SW 12 10.00 Fair CLR 54 37.6 54 34 54% 29.94 0.0
04 07:35 SW 12 10.00 Fair CLR 52.7 37.9 57% 29.94 0.0
04 07:15 SW 8 10.00 Fair CLR 51.1 38.8 63% 29.94 0.0
04 06:55 SW 5 10.00 Fair CLR 49.3 39.2 68% 48 29.94 0.0
04 06:35 SW 8 10.00 Fair CLR 47.5 38.5 71% 44 29.94 0.0
04 06:15 SW 7 10.00 Fair CLR 45.9 37.9 74% 43 29.94 0.0
04 05:55 SW 7 10.00 Fair CLR 44.4 37.4 76% 41 29.93 0.0
04 05:35 SW 3 10.00 Fair CLR 39.6 32.9 77% 29.92 0.0
04 05:15 Calm 10.00 Fair CLR 38.8 32 77% 29.92 0.0
04 04:55 Calm 10.00 Partly Cloudy SCT085 41.4 32.7 71% 29.92 0.0
04 04:35 Calm 10.00 Mostly Cloudy BKN085 39.2 33.1 79% 29.92 0.0
04 04:15 Calm 10.00 Overcast OVC085 40.3 32.9 75% 29.92 0.0
04 03:55 SW 5 10.00 Overcast OVC085 42.6 36 77% 40 29.91 0.0
04 03:35 SW 6 10.00 Mostly Cloudy BKN085 39.4 33.4 79% 36 29.91 0.0
04 03:15 SW 3 10.00 Partly Cloudy SCT095 36.5 30.7 80% 29.91 0.0
04 02:55 Calm 10.00 Partly Cloudy SCT095 39.2 33.3 79% 29.9 0.0
04 02:35 SW 3 10.00 Fair CLR 34.3 29.5 82% 29.9 0.0
04 02:15 Calm 10.00 Fair CLR 35.1 28.6 77% 29.9 0.0
04 01:55 Calm 10.00 Fair CLR 33.8 29.7 47.3 33.3 85% 29.89 0.0
04 01:35 Calm 10.00 Fair CLR 34.7 29.1 80% 29.89 0.0
04 01:15 Calm 10.00 Fair CLR 33.6 28.2 81% 29.89 0.0
04 00:55 Calm 10.00 Fair CLR 35.1 29.3 80% 29.89 0.0
04 00:35 Calm 10.00 Fair CLR 34.5 29.1 81% 29.9 0.0
04 00:15 Calm 10.00 Fair CLR 35.4 28.6 76% 29.9 0.0
03 23:55 Calm 10.00 Fair CLR 34.9 28.4 77% 29.89 0.0
03 23:35 Calm 10.00 Fair CLR 35.6 27.1 71% 29.89 0.0
03 23:15 Calm 10.00 Fair CLR 36.1 27 69% 29.89 0.0
03 22:55 Calm 10.00 Fair CLR 36.5 25.9 65% 29.89 0.0
03 22:35 Calm 10.00 Fair CLR 36.3 25.7 65% 29.89 0.0
03 22:15 Calm 10.00 Fair CLR 37.6 25.5 62% 29.89 0.0
03 21:55 Calm 10.00 Partly Cloudy SCT090 38.7 25.3 59% 29.89 0.0
03 21:35 Calm 10.00 Fair CLR 38.7 25 58% 29.88 0.0
03 21:15 Calm 10.00 Fair CLR 39.4 25.3 57% 29.87 0.0
03 20:55 Calm 10.00 Fair CLR 40.8 25.2 54% 29.86 0.0
03 20:35 Calm 10.00 Fair CLR 43 24.8 49% 29.86 0.0
03 20:15 Calm 10.00 Fair CLR 46.4 25.3 44% 29.85 0.0
03 19:55 Calm 10.00 Fair CLR 48 25 55.8 48 41% 29.84 0.0
03 19:35 Calm 10.00 Fair CLR 51.8 23.2 33% 29.84 0.0
03 19:15 NW 5 10.00 Fair CLR 52.9 22.3 30% 29.83 0.0
03 18:55 NW 8 10.00 Fair CLR 53.6 20.8 28% 29.83 0.0
03 18:35 NW 8 G 16 10.00 Fair CLR 54 21.4 28% 29.82 0.0
03 18:15 NW 12 G 17 10.00 Fair CLR 54.1 21.6 28% 29.82 0.0
03 17:55 NW 15 G 22 10.00 Fair CLR 54.5 20.8 27% 29.81 0.0
03 17:35 NW 15 G 22 10.00 Fair CLR 54.5 20.7 27% 29.81 0.0
03 17:15 W 15 G 25 10.00 Fair CLR 54.5 20.3 26% 29.81 0.0
03 16:55 W 12 G 26 10.00 Fair CLR 54.1 19.8 26% 29.8 0.0
03 16:35 W 16 G 30 10.00 Fair CLR 54.7 19.2 25% 29.79 0.0
03 16:15 W 16 G 24 10.00 Fair CLR 54.9 19.6 25% 29.79 0.0
03 15:55 NW 17 G 24 10.00 Partly Cloudy SCT075 54.3 20.7 27% 29.79 0.0
03 15:35 NW 14 G 21 10.00 Partly Cloudy SCT075 54.1 19.9 26% 29.79 0.0
03 15:15 NW 15 G 26 10.00 Fair CLR 53.8 19.4 26% 29.79 0.0
03 14:55 NW 13 G 30 10.00 Fair CLR 54 20.7 27% 29.79 0.0
03 14:35 NW 20 G 33 10.00 Partly Cloudy SCT080 54.1 23 30% 29.79 0.0
03 14:15 W 18 G 25 10.00 Partly Cloudy SCT080 54.1 23.4 30% 29.79 0.0
03 13:55 W 17 G 28 10.00 Partly Cloudy SCT080 53.2 23.4 54 45.5 31% 29.79 0.0
Date Time (edt) Wind (mph) Vis. (mi.) Weather Sky Cond. Air Dwpt Max. Min. Relative Humidity Wind Chill (°F) Heat Index (°F) altimeter (in) sea level (mb) 1 hr 3 hr 6 hr
6 hour
Temperature (ºF) Pressure Precipitation (in)